createdAt,value
2023-04-01T00:01:20.852Z,99140.38
2023-04-01T00:03:48.344Z,99142.56
2023-04-01T00:06:19.578Z,99137.88
2023-04-01T00:08:49.139Z,99143.88
2023-04-01T00:11:17.050Z,99145.81
2023-04-01T00:13:47.487Z,99135.44
2023-04-01T00:18:48.516Z,99142.91
2023-04-01T00:21:16.277Z,99141.06
2023-04-01T00:23:43.339Z,99138.53
2023-04-01T00:26:10.534Z,99136.06
2023-04-01T00:28:37.569Z,99138.53
2023-04-01T00:31:12.236Z,99129.72
2023-04-01T00:33:41.382Z,99132.84
2023-04-01T00:36:17.048Z,99138.31
2023-04-01T00:38:47.868Z,99143.63
2023-04-01T00:41:18.193Z,99135.25
2023-04-01T00:43:51.917Z,99139.19
2023-04-01T00:46:20.453Z,99140.28
2023-04-01T00:48:55.372Z,99138.16
2023-04-01T00:51:27.394Z,99137.00
2023-04-01T00:53:59.596Z,99137.19
2023-04-01T00:56:34.682Z,99137.63
2023-04-01T00:59:11.890Z,99144.84
2023-04-01T01:01:44.282Z,99147.47
2023-04-01T01:04:40.906Z,99141.81
2023-04-01T01:07:44.273Z,99144.06
2023-04-01T01:10:29.967Z,99140.38
2023-04-01T01:13:11.674Z,99139.19
2023-04-01T01:16:04.140Z,99136.81
2023-04-01T01:18:59.611Z,99138.06
2023-04-01T01:21:47.468Z,99138.09
2023-04-01T01:24:38.287Z,99130.28
2023-04-01T01:27:11.527Z,99139.91
2023-04-01T01:30:09.322Z,99143.91
2023-04-01T01:33:00.548Z,99133.50
2023-04-01T01:35:36.480Z,99141.41
2023-04-01T01:38:30.320Z,99139.31
2023-04-01T01:40:58.854Z,99140.06
2023-04-01T01:43:32.314Z,99141.38
2023-04-01T01:46:06.644Z,99138.06
2023-04-01T01:48:36.414Z,99133.53
2023-04-01T01:51:06.720Z,99144.13
2023-04-01T01:53:33.714Z,99142.25
2023-04-01T01:56:00.914Z,99135.31
2023-04-01T01:58:41.291Z,99140.56
2023-04-01T02:01:19.046Z,99146.00
2023-04-01T02:03:49.500Z,99143.41
2023-04-01T02:06:25.403Z,99147.94
2023-04-01T02:09:02.237Z,99136.25
2023-04-01T02:11:35.456Z,99144.94
2023-04-01T02:14:11.284Z,99154.44
2023-04-01T02:17:00.754Z,99146.75
2023-04-01T02:19:51.618Z,99146.00
2023-04-01T02:22:26.024Z,99153.47
2023-04-01T02:25:02.532Z,99150.13
2023-04-01T02:27:33.084Z,99154.28
2023-04-01T02:30:00.346Z,99150.53
2023-04-01T02:32:32.572Z,99151.31
2023-04-01T02:35:01.020Z,99156.38
2023-04-01T02:37:30.178Z,99164.31
2023-04-01T02:40:02.316Z,99156.13
2023-04-01T02:42:29.270Z,99160.50
2023-04-01T02:44:56.193Z,99165.56
2023-04-01T02:47:23.147Z,99161.97
2023-04-01T02:49:58.798Z,99165.72
2023-04-01T02:52:27.136Z,99161.56
2023-04-01T02:54:54.891Z,99167.84
2023-04-01T02:57:22.245Z,99164.31
2023-04-01T02:59:49.658Z,99165.16
2023-04-01T03:02:21.264Z,99170.56
2023-04-01T03:04:50.652Z,99172.66
2023-04-01T03:07:20.331Z,99178.13
2023-04-01T03:09:49.431Z,99171.00
2023-04-01T03:12:18.655Z,99175.38
2023-04-01T03:14:45.754Z,99177.97
2023-04-01T03:17:12.859Z,99178.75
2023-04-01T03:19:42.078Z,99170.56
2023-04-01T03:22:12.765Z,99183.72
2023-04-01T03:24:39.787Z,99176.91
2023-04-01T03:27:06.708Z,99186.28
2023-04-01T03:29:38.354Z,99185.41
2023-04-01T03:32:05.701Z,99178.22
2023-04-01T03:34:36.118Z,99176.78
2023-04-01T03:37:03.037Z,99177.84
2023-04-01T03:39:32.642Z,99177.00
2023-04-01T03:42:00.342Z,99183.22
2023-04-01T03:44:27.432Z,99185.72
2023-04-01T03:46:54.459Z,99186.38
2023-04-01T03:49:23.696Z,99191.97
2023-04-01T03:51:50.844Z,99179.66
2023-04-01T03:54:21.751Z,99189.19
2023-04-01T03:56:48.964Z,99193.84
2023-04-01T03:59:16.097Z,99188.19
2023-04-01T04:01:43.072Z,99192.50
2023-04-01T04:04:14.142Z,99190.13
2023-04-01T04:06:41.304Z,99198.91
2023-04-01T04:09:08.279Z,99195.81
2023-04-01T04:11:35.247Z,99187.72
2023-04-01T04:14:06.964Z,99199.41
2023-04-01T04:16:39.992Z,99207.84
2023-04-01T04:19:07.058Z,99206.13
2023-04-01T04:21:34.125Z,99207.06
2023-04-01T04:24:04.567Z,99204.16
2023-04-01T04:26:31.649Z,99210.03
2023-04-01T04:29:02.221Z,99222.81
2023-04-01T04:31:29.401Z,99213.38
2023-04-01T04:33:59.449Z,99216.09
2023-04-01T04:36:26.452Z,99217.41
2023-04-01T04:38:53.489Z,99224.47
2023-04-01T04:41:23.455Z,99227.00
2023-04-01T04:43:56.584Z,99232.16
2023-04-01T04:46:26.693Z,99228.16
2023-04-01T04:48:56.141Z,99233.59
2023-04-01T04:51:24.253Z,99235.31
2023-04-01T04:53:53.881Z,99238.25
2023-04-01T04:56:27.284Z,99235.75
2023-04-01T04:58:56.551Z,99244.94
2023-04-01T05:01:23.917Z,99236.53
2023-04-01T05:03:53.357Z,99246.31
2023-04-01T05:06:23.382Z,99250.34
2023-04-01T05:08:50.769Z,99248.50
2023-04-01T05:11:21.539Z,99248.06
2023-04-01T05:13:48.791Z,99252.84
2023-04-01T05:16:20.704Z,99246.75
2023-04-01T05:18:48.616Z,99256.56
2023-04-01T05:21:17.022Z,99256.13
2023-04-01T05:23:46.647Z,99256.53
2023-04-01T05:26:15.627Z,99264.97
2023-04-01T05:28:45.923Z,99254.09
2023-04-01T05:31:14.964Z,99265.19
2023-04-01T05:33:41.981Z,99267.47
2023-04-01T05:36:15.303Z,99270.56
2023-04-01T05:38:46.959Z,99274.19
2023-04-01T05:41:15.506Z,99277.47
2023-04-01T05:43:45.249Z,99278.16
2023-04-01T05:46:12.263Z,99278.31
2023-04-01T05:48:39.651Z,99282.94
2023-04-01T05:51:17.558Z,99280.41
2023-04-01T05:53:45.001Z,99279.13
2023-04-01T05:56:12.363Z,99289.75
2023-04-01T05:58:39.551Z,99286.47
2023-04-01T06:01:16.306Z,99292.47
2023-04-01T06:03:43.848Z,99292.13
2023-04-01T06:06:26.266Z,99291.28
2023-04-01T06:08:54.712Z,99295.66
2023-04-01T06:11:36.072Z,99294.44
2023-04-01T06:14:21.109Z,99293.41
2023-04-01T06:17:08.354Z,99305.50
2023-04-01T06:20:32.210Z,99300.63
2023-04-01T06:23:43.653Z,99306.91
2023-04-01T06:26:25.255Z,99311.06
2023-04-01T06:29:13.341Z,99308.56
2023-04-01T06:32:17.578Z,99315.91
2023-04-01T06:35:05.430Z,99319.00
2023-04-01T06:38:11.791Z,99321.72
2023-04-01T06:40:47.437Z,99324.00
2023-04-01T06:43:43.060Z,99337.13
2023-04-01T06:46:54.130Z,99340.47
2023-04-01T06:49:42.707Z,99338.88
2023-04-01T06:53:03.456Z,99339.13
2023-04-01T06:55:39.061Z,99353.94
2023-04-01T06:58:20.843Z,99357.66
2023-04-01T07:01:00.371Z,99355.97
2023-04-01T07:04:07.130Z,99368.28
2023-04-01T07:06:41.801Z,99367.97
2023-04-01T07:09:21.215Z,99386.91
2023-04-01T07:11:48.830Z,99380.56
2023-04-01T07:14:23.508Z,99378.69
2023-04-01T07:17:15.444Z,99384.84
2023-04-01T07:20:04.024Z,99383.91
2023-04-01T07:22:46.878Z,99385.06
2023-04-01T07:25:19.279Z,99390.69
2023-04-01T07:27:48.920Z,99399.53
2023-04-01T07:30:26.064Z,99409.28
2023-04-01T07:32:54.369Z,99402.88
2023-04-01T07:35:42.663Z,99409.63
2023-04-01T07:38:53.095Z,99411.78
2023-04-01T07:42:00.717Z,99424.78
2023-04-01T07:45:19.668Z,99421.81
2023-04-01T07:48:01.760Z,99436.84
2023-04-01T07:51:11.702Z,99437.81
2023-04-01T07:53:55.541Z,99439.16
2023-04-01T07:56:50.076Z,99453.13
2023-04-01T07:59:39.661Z,99450.44
2023-04-01T08:02:26.570Z,99460.81
2023-04-01T08:05:09.072Z,99460.44
2023-04-01T08:07:53.292Z,99468.91
2023-04-01T08:10:45.223Z,99476.44
2023-04-01T08:13:17.935Z,99466.50
2023-04-01T08:15:59.599Z,99476.59
2023-04-01T08:18:53.873Z,99480.38
2023-04-01T08:21:45.636Z,99494.00
2023-04-01T08:24:44.701Z,99496.16
2023-04-01T08:27:27.678Z,99496.47
2023-04-01T08:30:10.371Z,99499.97
2023-04-01T08:32:43.217Z,99503.44
2023-04-01T08:35:29.817Z,99501.97
2023-04-01T08:38:12.227Z,99507.97
2023-04-01T08:40:48.350Z,99516.28
2023-04-01T08:44:02.180Z,99512.78
2023-04-01T08:46:42.935Z,99521.50
2023-04-01T08:49:23.096Z,99515.81
2023-04-01T08:52:27.698Z,99520.59
2023-04-01T08:55:01.464Z,99527.03
2023-04-01T08:58:04.066Z,99531.56
2023-04-01T09:00:52.285Z,99530.06
2023-04-01T09:03:38.529Z,99540.72
2023-04-01T09:06:31.483Z,99537.91
2023-04-01T09:09:41.882Z,99549.09
2023-04-01T09:12:49.272Z,99545.59
2023-04-01T09:15:35.249Z,99554.50
2023-04-01T09:18:14.630Z,99564.94
2023-04-01T09:21:16.452Z,99549.16
2023-04-01T09:24:14.038Z,99565.44
2023-04-01T09:27:05.123Z,99570.91
2023-04-01T09:30:11.794Z,99574.22
2023-04-01T09:33:01.078Z,99574.44
2023-04-01T09:36:13.608Z,99572.31
2023-04-01T09:39:00.127Z,99579.94
2023-04-01T09:41:37.104Z,99586.22
2023-04-01T09:44:52.960Z,99602.50
2023-04-01T09:48:05.770Z,99602.22
2023-04-01T09:50:50.608Z,99597.56
2023-04-01T09:53:36.640Z,99607.19
2023-04-01T09:56:46.352Z,99611.56
2023-04-01T09:59:59.868Z,99615.09
2023-04-01T10:03:09.077Z,99618.84
2023-04-01T10:06:07.758Z,99619.16
2023-04-01T10:09:06.295Z,99630.22
2023-04-01T10:12:03.333Z,99630.00
2023-04-01T10:14:57.970Z,99633.94
2023-04-01T10:18:21.408Z,99637.63
2023-04-01T10:21:16.124Z,99636.69
2023-04-01T10:24:33.125Z,99641.84
2023-04-01T10:27:20.088Z,99653.97
2023-04-01T10:30:23.920Z,99656.19
2023-04-01T10:33:21.687Z,99656.81
2023-04-01T10:36:27.203Z,99662.34
2023-04-01T10:39:25.828Z,99660.22
2023-04-01T10:42:03.430Z,99659.75
2023-04-01T10:44:55.305Z,99671.44
2023-04-01T10:48:03.860Z,99666.84
2023-04-01T10:50:53.797Z,99658.63
2023-04-01T10:53:44.623Z,99677.78
2023-04-01T10:56:37.453Z,99677.13
2023-04-01T10:59:55.389Z,99677.75
2023-04-01T11:03:28.602Z,99689.88
2023-04-01T11:06:25.929Z,99697.06
2023-04-01T11:09:24.756Z,99685.78
2023-04-01T11:12:16.389Z,99699.03
2023-04-01T11:15:28.675Z,99701.44
2023-04-01T11:18:43.776Z,99709.53
2023-04-01T11:21:55.379Z,99709.91
2023-04-01T11:25:02.694Z,99699.91
2023-04-01T11:28:03.682Z,99714.59
2023-04-01T11:30:41.470Z,99728.13
2023-04-01T11:33:24.640Z,99732.44
2023-04-01T11:36:28.044Z,99740.44
2023-04-01T11:39:46.245Z,99736.63
2023-04-01T11:42:27.530Z,99736.16
2023-04-01T11:45:29.806Z,99744.00
2023-04-01T11:48:30.605Z,99753.78
2023-04-01T11:51:37.197Z,99760.69
2023-04-01T11:54:26.037Z,99756.97
2023-04-01T11:57:26.855Z,99770.56
2023-04-01T12:00:22.680Z,99754.72
2023-04-01T12:03:27.469Z,99793.09
2023-04-01T12:06:09.218Z,99780.09
2023-04-01T12:09:31.852Z,99781.31
2023-04-01T12:12:47.742Z,99790.84
2023-04-01T12:15:32.185Z,99797.16
2023-04-01T12:18:29.482Z,99794.88
2023-04-01T12:21:46.126Z,99799.75
2023-04-01T12:24:33.960Z,99809.31
2023-04-01T12:27:20.683Z,99814.09
2023-04-01T12:29:59.021Z,99815.50
2023-04-01T12:32:48.433Z,99826.91
2023-04-01T12:35:28.680Z,99829.63
2023-04-01T12:38:13.908Z,99836.75
2023-04-01T12:41:05.779Z,99834.34
2023-04-01T12:44:15.182Z,99841.69
2023-04-01T12:47:19.667Z,99854.50
2023-04-01T12:50:30.973Z,99855.97
2023-04-01T12:53:27.214Z,99864.41
2023-04-01T12:55:57.231Z,99862.44
2023-04-01T12:59:14.892Z,99871.50
2023-04-01T13:02:01.198Z,99866.91
2023-04-01T13:05:24.279Z,99874.06
2023-04-01T13:08:03.366Z,99879.00
2023-04-01T13:10:55.222Z,99887.66
2023-04-01T13:13:24.722Z,99878.09
2023-04-01T13:16:28.204Z,99889.41
2023-04-01T13:19:11.683Z,99891.88
2023-04-01T13:22:18.908Z,99905.16
2023-04-01T13:25:34.045Z,99900.84
2023-04-01T13:28:15.020Z,99910.63
2023-04-01T13:30:44.767Z,99914.50
2023-04-01T13:33:43.084Z,99925.75
2023-04-01T13:37:06.893Z,99926.25
2023-04-01T13:40:16.694Z,99936.22
2023-04-01T13:43:03.865Z,99935.19
2023-04-01T13:46:11.623Z,99940.50
2023-04-01T13:49:21.159Z,99937.91
2023-04-01T13:52:38.837Z,99949.91
2023-04-01T13:55:27.249Z,99951.00
2023-04-01T13:58:37.828Z,99955.31
2023-04-01T14:01:33.672Z,99962.88
2023-04-01T14:04:37.739Z,99964.16
2023-04-01T14:08:05.824Z,99965.34
2023-04-01T14:11:05.708Z,99973.25
2023-04-01T14:14:02.966Z,99983.69
2023-04-01T14:16:36.124Z,99979.00
2023-04-01T14:19:46.376Z,99986.78
2023-04-01T14:23:09.436Z,99997.25
2023-04-01T14:26:16.354Z,100000.28
2023-04-01T14:28:58.415Z,100003.66
2023-04-01T14:31:50.342Z,100008.53
2023-04-01T14:34:33.935Z,100011.78
2023-04-01T14:38:06.018Z,100024.59
2023-04-01T14:41:12.490Z,100015.09
2023-04-01T14:44:17.409Z,100025.59
2023-04-01T14:47:10.216Z,100019.53
2023-04-01T14:50:03.867Z,100020.34
2023-04-01T14:52:39.665Z,100037.41
2023-04-01T14:55:35.217Z,100040.28
2023-04-01T14:58:08.305Z,100050.91
2023-04-01T15:01:02.974Z,100060.69
2023-04-01T15:04:01.235Z,100052.41
2023-04-01T15:06:59.546Z,100057.31
2023-04-01T15:10:20.861Z,100063.22
2023-04-01T15:13:14.328Z,100072.66
2023-04-01T15:16:16.476Z,100069.13
2023-04-01T15:18:52.370Z,100077.22
2023-04-01T15:21:24.107Z,100098.44
2023-04-01T15:24:15.790Z,100085.28
2023-04-01T15:27:29.021Z,100093.22
2023-04-01T15:30:19.444Z,100101.47
2023-04-01T15:33:16.654Z,100101.16
2023-04-01T15:35:59.687Z,100113.28
2023-04-01T15:38:32.488Z,100110.91
2023-04-01T15:41:42.781Z,100109.59
2023-04-01T15:45:11.350Z,100134.25
2023-04-01T15:47:46.055Z,100123.75
2023-04-01T15:50:28.757Z,100129.59
2023-04-01T15:53:29.707Z,100141.88
2023-04-01T15:56:24.386Z,100141.84
2023-04-01T15:59:21.966Z,100152.75
2023-04-01T16:02:52.498Z,100162.88
2023-04-01T16:06:00.899Z,100156.84
2023-04-01T16:08:45.435Z,100165.28
2023-04-01T16:11:22.463Z,100170.63
2023-04-01T16:13:55.085Z,100182.81
2023-04-01T16:16:48.485Z,100176.69
2023-04-01T16:19:33.119Z,100184.06
2023-04-01T16:22:25.478Z,100191.44
2023-04-01T16:25:20.185Z,100193.84
2023-04-01T16:28:17.319Z,100206.94
2023-04-01T16:31:01.368Z,100209.63
2023-04-01T16:33:46.179Z,100217.00
2023-04-01T16:36:56.347Z,100231.84
2023-04-01T16:39:57.386Z,100225.88
2023-04-01T16:42:50.420Z,100234.09
2023-04-01T16:45:29.716Z,100249.84
2023-04-01T16:48:08.379Z,100259.56
2023-04-01T16:51:06.352Z,100264.91
2023-04-01T16:53:49.662Z,100268.03
2023-04-01T16:56:37.920Z,100277.50
2023-04-01T16:59:28.367Z,100278.97
2023-04-01T17:02:08.124Z,100274.19
2023-04-01T17:05:14.113Z,100290.91
2023-04-01T17:08:26.089Z,100300.72
2023-04-01T17:11:23.812Z,100303.69
2023-04-01T17:14:25.937Z,100307.38
2023-04-01T17:17:12.450Z,100320.00
2023-04-01T17:20:13.816Z,100321.97
2023-04-01T17:22:53.824Z,100332.47
2023-04-01T17:25:39.626Z,100334.31
2023-04-01T17:28:48.358Z,100346.66
2023-04-01T17:32:04.064Z,100353.25
2023-04-01T17:35:13.200Z,100368.59
2023-04-01T17:38:20.574Z,100365.56
2023-04-01T17:41:14.548Z,100371.66
2023-04-01T17:43:52.866Z,100375.63
2023-04-01T17:46:43.643Z,100396.91
2023-04-01T17:49:21.240Z,100383.56
2023-04-01T17:52:01.324Z,100387.75
2023-04-01T17:55:05.852Z,100402.09
2023-04-01T17:58:17.144Z,100415.25
2023-04-01T18:01:19.440Z,100412.72
2023-04-01T18:04:25.979Z,100426.88
2023-04-01T18:07:25.043Z,100427.22
2023-04-01T18:10:22.415Z,100434.38
2023-04-01T18:13:20.284Z,100440.38
2023-04-01T18:16:19.338Z,100452.50
2023-04-01T18:19:33.391Z,100458.72
2023-04-01T18:22:28.953Z,100476.41
2023-04-01T18:25:20.370Z,100469.50
2023-04-01T18:28:12.509Z,100487.66
2023-04-01T18:30:44.664Z,100487.53
2023-04-01T18:33:47.394Z,100497.03
2023-04-01T18:36:43.086Z,100499.97
2023-04-01T18:39:26.702Z,100502.91
2023-04-01T18:42:56.583Z,100516.69
2023-04-01T18:46:06.837Z,100522.22
2023-04-01T18:49:01.109Z,100524.06
2023-04-01T18:51:47.019Z,100536.09
2023-04-01T18:54:44.156Z,100543.72
2023-04-01T18:57:20.363Z,100553.34
2023-04-01T18:59:56.681Z,100556.28
2023-04-01T19:02:37.431Z,100558.72
2023-04-01T19:05:24.888Z,100563.25
2023-04-01T19:07:57.760Z,100566.78
2023-04-01T19:10:46.541Z,100570.72
2023-04-01T19:13:45.672Z,100588.16
2023-04-01T19:16:44.919Z,100594.25
2023-04-01T19:19:30.001Z,100590.59
2023-04-01T19:22:24.664Z,100588.72
2023-04-01T19:25:25.304Z,100607.16
2023-04-01T19:28:05.818Z,100613.38
2023-04-01T19:31:00.241Z,100615.63
2023-04-01T19:33:34.794Z,100618.19
2023-04-01T19:36:17.537Z,100628.78
2023-04-01T19:39:24.994Z,100623.97
2023-04-01T19:42:29.906Z,100634.59
2023-04-01T19:45:15.419Z,100639.81
2023-04-01T19:48:04.206Z,100646.78
2023-04-01T19:50:53.206Z,100652.19
2023-04-01T19:53:44.836Z,100661.13
2023-04-01T19:56:22.481Z,100664.28
2023-04-01T19:59:30.518Z,100677.44
2023-04-01T20:02:05.064Z,100673.03
2023-04-01T20:04:51.165Z,100688.28
2023-04-01T20:07:35.701Z,100684.31
2023-04-01T20:10:43.386Z,100697.63
2023-04-01T20:13:28.951Z,100711.59
2023-04-01T20:16:12.020Z,100713.59
2023-04-01T20:18:56.953Z,100715.84
2023-04-01T20:21:49.611Z,100724.88
2023-04-01T20:24:19.325Z,100734.03
2023-04-01T20:26:52.994Z,100733.13
2023-04-01T20:29:42.085Z,100744.44
2023-04-01T20:33:20.624Z,100753.91
2023-04-01T20:36:17.760Z,100760.22
2023-04-01T20:39:12.153Z,100772.00
2023-04-01T20:41:53.256Z,100768.88
2023-04-01T20:44:41.792Z,100772.50
2023-04-01T20:47:40.485Z,100774.84
2023-04-01T20:50:19.228Z,100782.00
2023-04-01T20:53:09.856Z,100782.84
2023-04-01T20:55:48.780Z,100783.44
2023-04-01T20:58:54.642Z,100794.75
2023-04-01T21:02:08.147Z,100809.38
2023-04-01T21:04:52.356Z,100802.19
2023-04-01T21:07:33.806Z,100813.91
2023-04-01T21:10:13.583Z,100811.59
2023-04-01T21:13:11.782Z,100814.06
2023-04-01T21:15:52.742Z,100822.72
2023-04-01T21:18:56.749Z,100827.28
2023-04-01T21:21:55.450Z,100828.81
2023-04-01T21:24:41.193Z,100830.78
2023-04-01T21:27:17.022Z,100835.72
2023-04-01T21:30:16.175Z,100835.00
2023-04-01T21:33:09.569Z,100842.72
2023-04-01T21:36:09.254Z,100848.91
2023-04-01T21:39:08.454Z,100845.97
2023-04-01T21:42:07.946Z,100841.97
2023-04-01T21:45:05.095Z,100851.38
2023-04-01T21:48:09.536Z,100864.53
2023-04-01T21:51:14.745Z,100866.25
2023-04-01T21:54:03.300Z,100872.34
2023-04-01T21:57:22.119Z,100879.91
2023-04-01T22:00:01.111Z,100879.91
2023-04-01T22:03:04.212Z,100894.50
2023-04-01T22:05:53.918Z,100902.94
2023-04-01T22:09:12.550Z,100908.41
2023-04-01T22:12:06.758Z,100911.34
2023-04-01T22:15:10.697Z,100918.06
2023-04-01T22:18:05.385Z,100928.25
2023-04-01T22:20:36.550Z,100927.78
2023-04-01T22:23:30.069Z,100931.06
2023-04-01T22:26:42.090Z,100942.53
2023-04-01T22:29:21.332Z,100945.81
2023-04-01T22:32:12.522Z,100952.75
2023-04-01T22:35:16.323Z,100957.59
2023-04-01T22:38:01.647Z,100963.56
2023-04-01T22:40:37.450Z,100961.03
2023-04-01T22:43:16.654Z,100964.78
2023-04-01T22:46:26.312Z,100962.97
2023-04-01T22:49:03.976Z,100973.78
2023-04-01T22:51:52.590Z,100968.78
2023-04-01T22:54:59.544Z,100978.53
2023-04-01T22:57:52.047Z,100986.53
2023-04-01T23:00:30.295Z,100996.53
2023-04-01T23:03:24.757Z,100988.66
2023-04-01T23:06:04.461Z,100998.72
2023-04-01T23:09:09.004Z,101005.66
2023-04-01T23:11:43.660Z,101014.75
2023-04-01T23:14:24.315Z,101003.53
2023-04-01T23:17:22.673Z,101010.72
2023-04-01T23:19:55.622Z,101021.88
2023-04-01T23:22:32.928Z,101026.72
2023-04-01T23:25:21.892Z,101024.81
2023-04-01T23:28:43.861Z,101033.63
2023-04-01T23:31:43.657Z,101040.75
2023-04-01T23:34:13.704Z,101042.16
2023-04-01T23:36:53.339Z,101042.50
2023-04-01T23:39:29.167Z,101051.84
2023-04-01T23:42:13.671Z,101063.03
2023-04-01T23:44:41.170Z,101057.72
2023-04-01T23:47:16.962Z,101069.63
2023-04-01T23:49:51.722Z,101066.53
2023-04-01T23:52:34.038Z,101073.50
2023-04-01T23:55:13.243Z,101075.38
2023-04-01T23:57:40.674Z,101081.66
